Time;durP1;ratioP1;P1;durP2;ratioP2;P2;SDS_P1;SDS_P2;PMS_P1;PMS_P2;Temp;Humidity;BMP_temperature;BMP_pressure;BME280_temperature;BME280_humidity;BME280_pressure;Samples;Min_cycle;Max_cycle;Signal;HPM_P1;HPM_P2
2023/08/22 00:00:46;;;;;;;15.10;11.70;;;25.90;69.50;;;;;;5097103;28;20425;-70
2023/08/22 00:03:12;;;;;;;14.95;11.93;;;25.90;69.50;;;;;;5096532;28;20042;-70
2023/08/22 00:05:38;;;;;;;14.07;11.93;;;25.90;69.60;;;;;;5095997;28;20027;-70
2023/08/22 00:08:05;;;;;;;14.27;11.93;;;25.90;69.60;;;;;;5096480;28;20035;-70
2023/08/22 00:10:32;;;;;;;18.17;11.70;;;25.90;69.70;;;;;;5095432;28;20024;-70
2023/08/22 00:12:58;;;;;;;15.27;12.35;;;25.80;69.80;;;;;;5096545;28;20153;-70
2023/08/22 00:15:24;;;;;;;13.82;12.13;;;25.80;69.70;;;;;;5096268;28;20456;-70
2023/08/22 00:17:50;;;;;;;16.58;12.02;;;25.70;69.90;;;;;;5096276;28;20091;-70
2023/08/22 00:20:17;;;;;;;14.95;11.40;;;25.80;69.90;;;;;;5096775;28;20023;-70
2023/08/22 00:22:43;;;;;;;14.63;12.27;;;25.70;69.80;;;;;;5096339;28;20020;-70
2023/08/22 00:25:11;;;;;;;15.30;12.02;;;25.70;69.80;;;;;;5096088;28;20028;-69
2023/08/22 00:27:37;;;;;;;14.45;11.90;;;25.70;69.80;;;;;;5096626;28;20020;-70
2023/08/22 00:30:04;;;;;;;16.75;12.05;;;25.70;69.90;;;;;;5096041;28;20088;-70
2023/08/22 00:32:31;;;;;;;15.57;11.93;;;25.60;69.90;;;;;;5095951;28;20012;-70
2023/08/22 00:34:57;;;;;;;14.27;12.05;;;25.60;69.90;;;;;;5096442;28;20469;-70
2023/08/22 00:37:23;;;;;;;15.13;11.85;;;25.60;70.00;;;;;;5095956;28;20020;-70
2023/08/22 00:39:49;;;;;;;16.00;11.93;;;25.60;70.10;;;;;;5096430;28;20346;-70
2023/08/22 00:42:15;;;;;;;16.38;12.63;;;25.50;70.10;;;;;;5096258;28;20350;-70
2023/08/22 00:44:41;;;;;;;15.90;12.38;;;25.50;70.10;;;;;;5095894;28;20111;-70
2023/08/22 00:47:07;;;;;;;18.02;14.82;;;25.50;70.30;;;;;;5096022;28;20051;-71
2023/08/22 00:49:35;;;;;;;13.80;11.43;;;25.40;70.20;;;;;;5095671;28;20056;-69
2023/08/22 00:52:03;;;;;;;17.63;12.10;;;25.40;70.40;;;;;;5096258;28;20039;-70
2023/08/22 00:54:30;;;;;;;14.77;12.10;;;25.40;70.40;;;;;;5095644;28;20140;-70
2023/08/22 00:56:57;;;;;;;19.33;13.10;;;25.40;70.50;;;;;;5095596;28;20437;-70
2023/08/22 00:59:26;;;;;;;16.10;12.65;;;25.30;70.60;;;;;;5096166;28;20051;-70
2023/08/22 01:01:53;;;;;;;15.02;12.43;;;25.30;70.60;;;;;;5096158;28;20099;-70
2023/08/22 01:04:20;;;;;;;15.93;13.05;;;25.30;70.50;;;;;;5095458;28;20024;-70
2023/08/22 01:07:00;;;;;;;14.68;12.80;;;25.20;70.60;;;;;;5095484;28;20052;-70
2023/08/22 01:09:48;;;;;;;15.52;12.07;;;25.20;70.80;;;;;;5096125;28;20444;-70
2023/08/22 01:12:14;;;;;;;14.35;11.82;;;25.10;71.50;;;;;;5095639;28;20016;-70
2023/08/22 01:14:45;;;;;;;13.82;11.98;;;25.00;71.20;;;;;;5095442;28;20024;-70
2023/08/22 01:17:13;;;;;;;14.50;11.68;;;25.00;71.20;;;;;;5098122;28;20099;-69
2023/08/22 01:19:39;;;;;;;14.90;11.57;;;25.00;71.40;;;;;;5102443;28;20030;-70
2023/08/22 01:22:05;;;;;;;15.07;11.70;;;24.90;71.60;;;;;;5102060;28;20012;-70
2023/08/22 01:24:31;;;;;;;13.90;12.15;;;25.00;71.50;;;;;;5102139;28;20043;-70
2023/08/22 01:26:57;;;;;;;16.73;12.13;;;24.90;71.70;;;;;;5102661;28;20441;-70
2023/08/22 01:29:36;;;;;;;14.07;11.80;;;24.90;71.50;;;;;;5102039;28;20020;-70
2023/08/22 01:32:13;;;;;;;17.80;12.05;;;24.90;71.50;;;;;;5101956;28;20020;-70
2023/08/22 01:34:41;;;;;;;15.25;12.20;;;24.90;71.80;;;;;;5102244;28;20024;-70
2023/08/22 01:37:10;;;;;;;14.65;11.80;;;24.80;71.90;;;;;;5102249;28;20028;-70
2023/08/22 01:39:39;;;;;;;15.68;13.55;;;24.80;71.90;;;;;;5101939;28;20134;-70
2023/08/22 01:42:06;;;;;;;16.67;13.15;;;24.80;72.00;;;;;;5102191;28;20028;-70
2023/08/22 01:44:33;;;;;;;15.25;13.13;;;24.80;71.90;;;;;;5102193;28;20040;-69
2023/08/22 01:46:59;;;;;;;17.70;13.48;;;24.80;71.90;;;;;;5101941;28;20012;-70
2023/08/22 01:49:25;;;;;;;14.93;12.25;;;24.80;72.00;;;;;;5101689;28;20044;-70
2023/08/22 01:51:51;;;;;;;14.52;12.90;;;24.80;71.90;;;;;;5102199;28;20016;-70
2023/08/22 01:54:17;;;;;;;17.40;13.10;;;24.80;71.90;;;;;;5102044;28;20024;-70
2023/08/22 01:56:43;;;;;;;18.30;12.93;;;24.70;72.10;;;;;;5102073;28;20059;-70
2023/08/22 01:59:08;;;;;;;15.43;13.07;;;24.70;72.30;;;;;;5102079;28;20073;-70
2023/08/22 02:01:34;;;;;;;15.18;12.30;;;24.70;72.30;;;;;;5102063;28;20095;-70
2023/08/22 02:04:03;;;;;;;19.20;14.18;;;24.70;72.30;;;;;;5102227;28;20024;-70
2023/08/22 02:06:31;;;;;;;17.73;14.35;;;24.70;72.40;;;;;;5101704;28;20035;-70
2023/08/22 02:08:57;;;;;;;18.35;12.90;;;24.60;72.50;;;;;;5101967;28;20032;-70
2023/08/22 02:11:23;;;;;;;16.10;12.98;;;24.60;72.70;;;;;;5101960;28;20020;-70
2023/08/22 02:13:50;;;;;;;16.17;13.07;;;24.60;72.80;;;;;;5101522;28;20406;-70
2023/08/22 02:16:15;;;;;;;16.75;13.15;;;24.50;72.90;;;;;;5101507;28;20039;-70
2023/08/22 02:18:41;;;;;;;17.10;12.65;;;24.50;72.90;;;;;;5102167;28;20349;-70
2023/08/22 02:21:07;;;;;;;16.98;13.10;;;24.50;72.90;;;;;;5101609;28;20050;-70
2023/08/22 02:23:34;;;;;;;17.77;14.23;;;24.50;72.90;;;;;;5101527;28;20020;-70
2023/08/22 02:26:00;;;;;;;15.85;13.25;;;24.50;73.00;;;;;;5101815;28;20039;-70
2023/08/22 02:28:25;;;;;;;14.80;12.15;;;24.50;73.00;;;;;;5100006;28;20032;-70
2023/08/22 02:30:55;;;;;;;16.98;13.10;;;24.40;73.00;;;;;;5098905;28;20016;-70
2023/08/22 02:33:22;;;;;;;15.82;12.93;;;24.40;72.80;;;;;;5098330;28;20032;-70
2023/08/22 02:35:48;;;;;;;17.15;13.20;;;24.40;72.90;;;;;;5098440;28;20107;-70
2023/08/22 02:38:13;;;;;;;14.98;12.65;;;24.40;73.00;;;;;;5098251;28;20383;-70
2023/08/22 02:40:39;;;;;;;16.05;12.20;;;24.40;73.10;;;;;;5098227;28;20056;-70
2023/08/22 02:43:05;;;;;;;14.98;12.05;;;24.30;73.20;;;;;;5098214;28;20399;-70
2023/08/22 02:45:31;;;;;;;14.43;11.77;;;24.30;73.20;;;;;;5098310;28;20024;-69
2023/08/22 02:47:57;;;;;;;17.20;13.50;;;24.30;73.30;;;;;;5098329;28;20048;-70
2023/08/22 02:50:23;;;;;;;20.50;13.48;;;24.20;73.30;;;;;;5097820;28;20093;-69
2023/08/22 02:52:53;;;;;;;17.17;14.15;;;24.20;73.30;;;;;;5097839;28;20024;-70
2023/08/22 02:55:19;;;;;;;17.88;13.20;;;24.20;73.50;;;;;;5098886;28;20073;-70
2023/08/22 02:57:45;;;;;;;17.13;13.57;;;24.20;73.50;;;;;;5097840;28;20039;-70
2023/08/22 03:00:13;;;;;;;18.45;14.23;;;24.10;73.40;;;;;;5097742;28;20016;-70
2023/08/22 03:02:39;;;;;;;21.98;17.38;;;24.10;73.60;;;;;;5098447;28;20051;-70
2023/08/22 03:05:07;;;;;;;18.90;14.57;;;24.00;73.60;;;;;;5098243;28;20032;-70
2023/08/22 03:07:34;;;;;;;22.23;18.23;;;24.00;74.00;;;;;;5097654;28;20020;-70
2023/08/22 03:10:00;;;;;;;17.27;14.77;;;24.00;73.90;;;;;;5097876;28;20020;-70
2023/08/22 03:12:25;;;;;;;18.23;14.80;;;23.90;74.00;;;;;;5097508;28;20020;-69
2023/08/22 03:14:51;;;;;;;17.42;13.18;;;23.90;74.10;;;;;;5097448;28;20039;-70
2023/08/22 03:17:17;;;;;;;18.58;14.20;;;23.90;74.20;;;;;;5098016;28;20016;-70
2023/08/22 03:19:43;;;;;;;17.38;14.27;;;23.90;74.20;;;;;;5097996;28;20318;-70
2023/08/22 03:22:09;;;;;;;18.27;14.27;;;23.90;74.30;;;;;;5097334;28;20024;-70
2023/08/22 03:24:35;;;;;;;19.95;16.02;;;23.90;74.40;;;;;;5097297;28;20016;-70
2023/08/22 03:27:01;;;;;;;19.27;14.45;;;23.90;74.50;;;;;;5097779;28;20107;-70
2023/08/22 03:29:27;;;;;;;18.27;14.63;;;23.90;74.40;;;;;;5097196;28;20028;-70
2023/08/22 03:31:53;;;;;;;16.92;13.25;;;23.80;74.40;;;;;;5097178;28;20397;-70
2023/08/22 03:34:19;;;;;;;20.58;12.70;;;23.80;74.30;;;;;;5097327;28;20048;-70
2023/08/22 03:36:45;;;;;;;17.92;13.88;;;23.80;74.40;;;;;;5096982;28;20040;-70
2023/08/22 03:39:11;;;;;;;16.60;13.35;;;23.80;74.50;;;;;;5096001;28;20069;-70
2023/08/22 03:41:37;;;;;;;16.60;12.27;;;23.90;74.30;;;;;;5095783;28;20063;-70
2023/08/22 03:44:03;;;;;;;18.77;15.52;;;23.90;74.30;;;;;;5097092;28;20024;-70
2023/08/22 03:46:29;;;;;;;17.13;12.60;;;23.90;74.30;;;;;;5096893;28;20043;-70
2023/08/22 03:48:55;;;;;;;16.23;12.95;;;23.80;74.30;;;;;;5096858;28;20020;-69
2023/08/22 03:51:21;;;;;;;17.48;12.50;;;23.80;74.40;;;;;;5096620;28;20120;-70
2023/08/22 03:53:48;;;;;;;19.40;14.10;;;23.70;74.50;;;;;;5096669;28;20394;-69
2023/08/22 03:56:14;;;;;;;16.20;12.80;;;23.70;74.50;;;;;;5096872;28;20043;-70
2023/08/22 03:58:40;;;;;;;17.52;13.32;;;23.70;74.60;;;;;;5097185;28;20020;-70
2023/08/22 04:01:06;;;;;;;14.25;11.55;;;23.70;74.60;;;;;;5096846;28;20035;-70
2023/08/22 04:03:32;;;;;;;15.02;12.25;;;23.70;74.50;;;;;;5096561;28;20027;-70
2023/08/22 04:05:59;;;;;;;16.45;12.57;;;23.70;74.70;;;;;;5096752;28;20425;-70
2023/08/22 04:08:25;;;;;;;15.45;11.88;;;23.70;74.70;;;;;;5096331;28;20028;-70
2023/08/22 04:10:52;;;;;;;15.50;12.32;;;23.70;74.80;;;;;;5096638;28;20031;-70
2023/08/22 04:13:19;;;;;;;15.90;11.73;;;23.60;74.80;;;;;;5096401;28;20020;-70
2023/08/22 04:15:44;;;;;;;16.88;12.63;;;23.70;74.80;;;;;;5096515;28;20461;-70
2023/08/22 04:18:10;;;;;;;14.75;11.55;;;23.70;74.70;;;;;;5096289;28;20127;-70
2023/08/22 04:20:36;;;;;;;15.10;12.23;;;23.70;74.70;;;;;;5096467;28;20028;-70
2023/08/22 04:23:03;;;;;;;16.58;12.40;;;23.70;74.70;;;;;;5096359;28;20384;-70
2023/08/22 04:25:29;;;;;;;13.75;11.38;;;23.70;74.70;;;;;;5096623;28;20042;-70
2023/08/22 04:27:54;;;;;;;16.92;12.80;;;23.70;74.70;;;;;;5096399;28;20031;-70
2023/08/22 04:30:20;;;;;;;15.23;11.80;;;23.70;74.70;;;;;;5096071;28;20349;-70
2023/08/22 04:32:46;;;;;;;15.25;11.55;;;23.70;74.70;;;;;;5096302;28;20035;-70
2023/08/22 04:35:12;;;;;;;14.45;11.25;;;23.70;74.60;;;;;;5095996;28;20028;-70
2023/08/22 04:37:38;;;;;;;15.90;11.95;;;23.80;74.60;;;;;;5095934;28;20020;-70
2023/08/22 04:40:05;;;;;;;14.98;11.57;;;23.90;74.40;;;;;;5096432;28;20027;-70
2023/08/22 04:42:31;;;;;;;17.33;12.75;;;23.90;74.30;;;;;;5096026;28;20337;-70
2023/08/22 04:44:57;;;;;;;18.98;14.45;;;23.90;74.20;;;;;;5096018;28;20360;-69
2023/08/22 04:47:23;;;;;;;18.15;13.50;;;23.90;74.10;;;;;;5096320;28;20095;-70
2023/08/22 04:49:49;;;;;;;16.33;12.93;;;23.90;74.00;;;;;;5096173;28;20052;-70
2023/08/22 04:52:14;;;;;;;18.20;12.98;;;23.90;74.00;;;;;;5095264;28;20453;-70
2023/08/22 04:54:41;;;;;;;17.52;12.38;;;24.00;74.00;;;;;;5095641;28;20074;-70
2023/08/22 04:57:07;;;;;;;14.73;12.43;;;24.10;73.90;;;;;;5095684;28;20028;-70
2023/08/22 04:59:33;;;;;;;16.05;12.57;;;24.10;73.80;;;;;;5095658;28;20081;-70
2023/08/22 05:01:59;;;;;;;14.93;12.18;;;24.20;73.70;;;;;;5095508;28;20091;-70
2023/08/22 05:04:26;;;;;;;16.88;12.30;;;24.30;73.60;;;;;;5095826;28;20108;-70
2023/08/22 05:06:51;;;;;;;16.60;12.00;;;24.40;73.50;;;;;;5095419;28;20032;-69
2023/08/22 05:09:17;;;;;;;15.32;11.65;;;24.50;73.40;;;;;;5096004;28;20077;-70
2023/08/22 05:11:44;;;;;;;16.30;12.77;;;24.70;73.30;;;;;;5096015;28;20103;-70
2023/08/22 05:14:11;;;;;;;14.75;11.82;;;25.30;73.00;;;;;;5095400;28;20028;-70
2023/08/22 05:16:38;;;;;;;14.98;11.43;;;26.40;71.10;;;;;;5095340;28;20081;-70
2023/08/22 05:19:05;;;;;;;16.40;12.88;;;27.60;68.50;;;;;;5094430;28;20024;-70
2023/08/22 05:21:31;;;;;;;15.27;11.13;;;28.90;65.60;;;;;;5095377;28;20103;-70
2023/08/22 05:23:57;;;;;;;17.30;11.73;;;30.00;63.10;;;;;;5095522;28;20097;-70
2023/08/22 05:26:23;;;;;;;14.48;10.63;;;31.10;60.80;;;;;;5094326;28;20353;-70
2023/08/22 05:28:49;;;;;;;11.95;9.70;;;32.10;58.60;;;;;;5095580;28;20028;-70
2023/08/22 05:31:22;;;;;;;11.13;8.85;;;33.00;56.30;;;;;;5095522;28;20034;-70
2023/08/22 05:33:48;;;;;;;9.82;8.27;;;34.00;53.90;;;;;;5095183;28;20020;-70
2023/08/22 05:36:14;;;;;;;10.93;8.45;;;34.90;51.80;;;;;;5095751;28;20099;-70
2023/08/22 05:38:41;;;;;;;10.73;8.00;;;35.80;49.30;;;;;;5095227;28;20055;-70
2023/08/22 05:41:07;;;;;;;10.57;7.88;;;36.70;47.90;;;;;;5095189;28;20027;-70
2023/08/22 05:43:33;;;;;;;11.52;8.65;;;37.60;46.50;;;;;;5095113;28;20020;-70
2023/08/22 05:46:00;;;;;;;10.38;8.45;;;38.30;45.10;;;;;;5095189;28;20024;-70
2023/08/22 05:48:30;;;;;;;10.55;8.30;;;38.90;44.30;;;;;;5095066;28;20044;-70
2023/08/22 05:50:57;;;;;;;12.93;8.80;;;39.60;43.40;;;;;;5094964;28;20052;-71
2023/08/22 05:53:23;;;;;;;32.42;11.30;;;40.40;42.50;;;;;;5095232;28;20032;-71
2023/08/22 05:55:49;;;;;;;70.03;13.88;;;41.20;41.00;;;;;;5095006;28;20086;-70
2023/08/22 05:58:15;;;;;;;14.45;8.57;;;41.80;40.10;;;;;;5094984;28;20397;-69
2023/08/22 06:00:41;;;;;;;11.52;8.18;;;42.50;39.30;;;;;;5095135;28;20037;-69
2023/08/22 06:03:07;;;;;;;14.35;8.38;;;43.10;38.40;;;;;;5095112;28;20032;-69
2023/08/22 06:05:33;;;;;;;10.13;7.97;;;43.70;37.60;;;;;;5098640;28;20060;-69
2023/08/22 06:07:59;;;;;;;11.55;9.13;;;44.40;36.90;;;;;;5098832;28;20450;-69
2023/08/22 06:10:25;;;;;;;11.45;9.05;;;44.90;36.00;;;;;;5099075;28;20445;-68
2023/08/22 06:12:51;;;;;;;10.98;9.00;;;45.30;35.30;;;;;;5099071;28;20043;-69
2023/08/22 06:15:18;;;;;;;12.43;9.20;;;45.70;34.60;;;;;;5098700;28;20032;-69
2023/08/22 06:17:44;;;;;;;9.55;8.50;;;46.00;33.80;;;;;;5098661;28;20020;-69
2023/08/22 06:20:10;;;;;;;12.02;8.75;;;46.40;33.10;;;;;;5099222;28;20016;-70
2023/08/22 06:22:36;;;;;;;11.25;7.93;;;46.80;32.70;;;;;;5098566;28;20057;-70
2023/08/22 06:25:04;;;;;;;11.27;7.13;;;47.30;31.90;;;;;;5098861;28;20020;-70
2023/08/22 06:27:31;;;;;;;10.95;8.30;;;47.60;31.50;;;;;;5098767;28;20062;-70
2023/08/22 06:29:57;;;;;;;8.55;7.65;;;48.00;30.70;;;;;;5098690;28;20058;-70
2023/08/22 06:32:23;;;;;;;8.65;7.63;;;48.40;30.50;;;;;;5098364;28;20032;-70
2023/08/22 06:34:49;;;;;;;11.95;7.35;;;48.90;30.40;;;;;;5098812;28;20052;-70
2023/08/22 06:37:15;;;;;;;10.18;7.38;;;49.20;29.90;;;;;;5098270;28;20058;-70
2023/08/22 06:39:41;;;;;;;10.30;7.30;;;49.50;29.60;;;;;;5098238;28;20060;-70
2023/08/22 06:42:08;;;;;;;10.05;7.38;;;49.80;29.20;;;;;;5098172;28;20032;-70
2023/08/22 06:44:34;;;;;;;13.20;8.05;;;50.10;29.00;;;;;;5098440;28;20020;-70
2023/08/22 06:47:00;;;;;;;10.77;7.95;;;50.40;28.90;;;;;;5098034;28;20031;-70
2023/08/22 06:49:26;;;;;;;13.98;7.45;;;50.70;28.30;;;;;;5097916;28;20040;-70
2023/08/22 06:51:52;;;;;;;9.30;7.70;;;50.90;28.20;;;;;;5097945;28;20370;-70
2023/08/22 06:54:18;;;;;;;12.50;7.60;;;51.20;28.00;;;;;;5097894;28;20069;-70
2023/08/22 06:56:44;;;;;;;10.52;7.68;;;51.40;27.90;;;;;;5097826;28;20024;-70
2023/08/22 06:59:10;;;;;;;9.18;7.05;;;51.50;27.70;;;;;;5097001;28;20437;-70
2023/08/22 07:01:37;;;;;;;12.25;8.10;;;51.80;27.60;;;;;;5097778;28;20063;-70
2023/08/22 07:04:03;;;;;;;10.55;7.50;;;51.90;27.40;;;;;;5097965;28;20063;-70
2023/08/22 07:06:29;;;;;;;10.88;8.32;;;51.90;27.20;;;;;;5097987;28;20154;-70
2023/08/22 07:08:55;;;;;;;10.88;8.52;;;51.90;27.10;;;;;;5097979;28;20101;-70
2023/08/22 07:11:21;;;;;;;14.07;8.35;;;51.90;27.10;;;;;;5097586;28;20498;-70
2023/08/22 07:13:47;;;;;;;13.43;8.50;;;52.00;26.90;;;;;;5097770;28;20032;-70
2023/08/22 07:16:13;;;;;;;13.75;8.60;;;52.00;26.70;;;;;;5097410;28;20024;-70
2023/08/22 07:18:39;;;;;;;13.60;8.52;;;51.90;26.30;;;;;;5097784;28;20022;-70
2023/08/22 07:21:07;;;;;;;10.00;7.93;;;51.70;26.10;;;;;;5097403;28;20024;-70
2023/08/22 07:23:33;;;;;;;12.13;8.90;;;50.90;26.30;;;;;;5097495;28;20023;-70
2023/08/22 07:26:00;;;;;;;11.18;8.50;;;49.30;26.90;;;;;;5097432;28;20032;-70
2023/08/22 07:28:26;;;;;;;9.50;7.60;;;47.60;27.90;;;;;;5097343;28;20059;-70
2023/08/22 07:30:53;;;;;;;10.20;7.72;;;45.80;29.40;;;;;;5097315;28;20028;-70
2023/08/22 07:33:19;;;;;;;9.50;7.97;;;44.50;30.50;;;;;;5097104;28;20345;-70
2023/08/22 07:35:46;;;;;;;10.85;8.20;;;43.50;31.60;;;;;;5095927;28;20024;-70
2023/08/22 07:38:12;;;;;;;9.40;8.32;;;42.60;32.40;;;;;;5097143;28;20032;-70
2023/08/22 07:40:40;;;;;;;9.27;8.27;;;42.00;33.20;;;;;;5097127;28;20061;-69
2023/08/22 07:43:06;;;;;;;12.43;8.70;;;41.40;33.80;;;;;;5096735;28;20024;-69
2023/08/22 07:45:32;;;;;;;13.23;8.52;;;40.90;34.30;;;;;;5097553;28;20097;-70
2023/08/22 07:47:59;;;;;;;9.38;8.43;;;40.30;35.10;;;;;;5097708;28;20120;-70
2023/08/22 07:50:25;;;;;;;9.18;8.15;;;40.00;35.50;;;;;;5096707;28;20036;-70
2023/08/22 07:52:51;;;;;;;11.45;8.57;;;39.70;35.90;;;;;;5096970;28;20044;-69
2023/08/22 07:55:17;;;;;;;10.07;8.15;;;39.60;36.30;;;;;;5096709;28;20036;-70
2023/08/22 07:57:43;;;;;;;9.88;8.25;;;39.40;36.40;;;;;;5096973;28;20099;-70
2023/08/22 08:00:11;;;;;;;9.38;8.40;;;39.40;36.70;;;;;;5096760;28;20016;-70
2023/08/22 08:02:38;;;;;;;11.98;8.77;;;39.30;36.70;;;;;;5096507;28;20043;-70
2023/08/22 08:05:05;;;;;;;10.07;8.75;;;39.30;36.80;;;;;;5096488;28;20035;-69
2023/08/22 08:07:31;;;;;;;12.68;9.13;;;39.20;36.80;;;;;;5097145;28;20040;-70
2023/08/22 08:09:57;;;;;;;10.57;8.88;;;39.20;37.00;;;;;;5096482;28;20360;-70
2023/08/22 08:12:24;;;;;;;12.05;8.95;;;39.00;36.90;;;;;;5096655;28;20028;-70
2023/08/22 08:14:50;;;;;;;10.60;9.13;;;39.00;37.10;;;;;;5096570;28;20051;-69
2023/08/22 08:17:18;;;;;;;9.93;7.82;;;38.90;37.30;;;;;;5096351;28;20062;-70
2023/08/22 08:19:45;;;;;;;12.40;8.18;;;38.90;37.60;;;;;;5096316;28;20123;-70
2023/08/22 08:22:11;;;;;;;10.82;9.05;;;38.80;37.70;;;;;;5096235;28;20460;-69
2023/08/22 08:24:38;;;;;;;10.88;8.73;;;38.70;37.90;;;;;;5096229;28;20031;-70
2023/08/22 08:27:05;;;;;;;11.80;9.05;;;38.70;38.00;;;;;;5096089;28;20099;-70
2023/08/22 08:29:31;;;;;;;10.68;9.45;;;38.50;38.10;;;;;;5096092;28;20024;-70
2023/08/22 08:31:57;;;;;;;9.70;8.45;;;38.50;38.00;;;;;;5096280;28;20028;-70
2023/08/22 08:34:24;;;;;;;10.98;9.00;;;38.50;38.20;;;;;;5095006;28;20020;-70
2023/08/22 08:36:50;;;;;;;11.20;9.35;;;38.50;38.30;;;;;;5095814;28;20016;-60
2023/08/22 08:39:17;;;;;;;9.55;8.55;;;38.60;38.00;;;;;;5095938;28;20349;-60
2023/08/22 08:42:03;;;;;;;9.90;8.90;;;38.50;37.90;;;;;;5096076;28;20449;-60
2023/08/22 08:44:33;;;;;;;10.25;9.00;;;38.50;37.90;;;;;;5095807;28;20444;-60
2023/08/22 08:47:00;;;;;;;11.50;10.15;;;38.40;37.80;;;;;;5096047;28;20032;-60
2023/08/22 08:49:26;;;;;;;12.80;10.05;;;37.90;38.10;;;;;;5095697;28;20043;-60
2023/08/22 08:51:54;;;;;;;10.65;9.52;;;37.50;38.70;;;;;;5096003;28;20058;-60
2023/08/22 08:54:22;;;;;;;10.63;9.27;;;37.40;39.30;;;;;;5095809;28;20032;-60
2023/08/22 08:56:48;;;;;;;10.68;8.82;;;37.40;39.50;;;;;;5095460;28;20039;-60
2023/08/22 08:59:14;;;;;;;10.32;9.27;;;37.50;39.50;;;;;;5095877;28;20023;-60
2023/08/22 09:01:43;;;;;;;12.55;9.80;;;37.60;39.50;;;;;;5095513;28;20039;-60
2023/08/22 09:04:10;;;;;;;10.23;8.98;;;37.60;39.80;;;;;;5095527;28;20039;-60
2023/08/22 09:06:37;;;;;;;12.10;10.40;;;37.60;39.60;;;;;;5095478;28;20054;-60
2023/08/22 09:09:08;;;;;;;11.35;9.70;;;37.60;39.50;;;;;;5095487;28;20024;-60
2023/08/22 09:11:45;;;;;;;10.63;8.80;;;37.50;39.10;;;;;;5095671;28;20031;-60
2023/08/22 09:14:11;;;;;;;10.88;9.27;;;37.40;39.30;;;;;;5095669;28;20068;-60
2023/08/22 09:16:38;;;;;;;10.80;9.35;;;37.30;39.40;;;;;;5094887;28;20032;-60
2023/08/22 09:19:06;;;;;;;11.23;10.02;;;37.30;39.30;;;;;;5095891;28;20043;-60
2023/08/22 09:21:32;;;;;;;10.57;9.32;;;37.40;39.20;;;;;;5095323;28;20133;-60
2023/08/22 09:24:09;;;;;;;10.82;9.02;;;37.40;39.30;;;;;;5095212;28;20345;-60
2023/08/22 09:26:35;;;;;;;11.02;9.18;;;37.40;39.30;;;;;;5095352;28;20074;-60
2023/08/22 09:29:05;;;;;;;10.93;8.93;;;37.40;39.50;;;;;;5095503;28;20028;-60
2023/08/22 09:31:32;;;;;;;10.77;9.25;;;37.30;39.60;;;;;;5095224;28;20028;-60
2023/08/22 09:33:58;;;;;;;11.02;9.40;;;37.20;39.80;;;;;;5095411;28;20085;-60
2023/08/22 09:36:25;;;;;;;12.30;9.55;;;37.30;39.90;;;;;;5095362;28;20507;-60
2023/08/22 09:38:55;;;;;;;10.77;9.65;;;37.30;39.90;;;;;;5096590;28;20027;-60
2023/08/22 09:41:25;;;;;;;10.88;9.77;;;37.20;39.80;;;;;;5099588;28;20441;-60
2023/08/22 09:43:58;;;;;;;12.70;9.52;;;37.00;40.00;;;;;;5099177;28;20031;-60
2023/08/22 09:46:24;;;;;;;12.10;9.82;;;37.00;40.20;;;;;;5099510;28;20356;-61
2023/08/22 09:48:51;;;;;;;10.75;9.40;;;37.00;40.30;;;;;;5099017;28;20473;-60
2023/08/22 09:51:21;;;;;;;10.77;9.35;;;37.00;40.30;;;;;;5098889;28;20059;-60
2023/08/22 09:53:51;;;;;;;13.25;11.13;;;37.10;40.60;;;;;;5099111;28;20022;-60
2023/08/22 09:56:20;;;;;;;11.90;9.85;;;36.90;40.00;;;;;;5098154;28;20039;-60
2023/08/22 09:58:47;;;;;;;11.70;10.50;;;36.80;40.60;;;;;;5098304;28;20042;-60
2023/08/22 10:01:16;;;;;;;13.02;9.63;;;36.60;40.90;;;;;;5096363;28;20027;-60
2023/08/22 10:03:43;;;;;;;10.68;9.32;;;36.60;41.10;;;;;;5096990;28;20020;-60
2023/08/22 10:06:12;;;;;;;15.73;9.63;;;36.70;41.20;;;;;;5097833;28;20035;-60
2023/08/22 10:08:38;;;;;;;12.35;9.95;;;36.70;41.10;;;;;;5097694;28;20036;-60
2023/08/22 10:11:07;;;;;;;11.50;9.45;;;36.70;41.30;;;;;;5098453;28;20099;-60
2023/08/22 10:13:36;;;;;;;11.90;9.57;;;36.80;41.10;;;;;;5098653;28;20032;-60
2023/08/22 10:16:02;;;;;;;12.32;9.95;;;36.90;41.00;;;;;;5097718;28;20024;-60
2023/08/22 10:18:29;;;;;;;11.82;10.38;;;37.00;40.80;;;;;;5098700;28;20028;-60
2023/08/22 10:20:56;;;;;;;11.90;9.88;;;37.00;40.60;;;;;;5099165;28;20448;-60
2023/08/22 10:23:52;;;;;;;11.32;9.85;;;37.00;40.20;;;;;;5098543;28;20044;-61
2023/08/22 10:26:23;;;;;;;12.30;9.73;;;37.00;40.30;;;;;;5098562;28;20028;-60
2023/08/22 10:29:15;;;;;;;10.63;9.02;;;37.10;40.30;;;;;;5099047;28;20422;-60
2023/08/22 10:31:59;;;;;;;;;;;37.20;40.40;;;;;;5097966;28;20036;-60
2023/08/22 10:34:34;;;;;;;11.23;10.05;;;37.20;40.80;;;;;;5098277;28;20343;-60
2023/08/22 10:37:25;;;;;;;11.82;9.43;;;37.00;40.50;;;;;;5098882;28;20032;-60
2023/08/22 10:39:52;;;;;;;13.10;10.90;;;37.00;40.70;;;;;;5098612;28;20024;-60
2023/08/22 10:42:20;;;;;;;12.30;10.98;;;36.90;40.30;;;;;;5098117;28;20057;-60
2023/08/22 10:44:50;;;;;;;11.13;9.90;;;36.70;40.90;;;;;;5098138;28;20016;-60
2023/08/22 10:47:17;;;;;;;12.13;10.90;;;36.60;41.00;;;;;;5098680;28;20024;-60
2023/08/22 10:49:43;;;;;;;12.02;10.18;;;36.70;40.70;;;;;;5097352;28;20044;-60
2023/08/22 10:52:11;;;;;;;11.55;10.13;;;36.60;40.50;;;;;;5098246;28;20099;-60
2023/08/22 10:55:12;;;;;;;10.82;9.73;;;36.60;40.40;;;;;;5097964;28;20035;-60
2023/08/22 10:57:41;;;;;;;13.10;10.55;;;36.70;40.50;;;;;;5098182;28;20028;-60
2023/08/22 11:00:12;;;;;;;10.45;9.35;;;36.60;40.50;;;;;;5098124;28;20102;-60
2023/08/22 11:02:40;;;;;;;11.65;9.57;;;36.60;40.90;;;;;;5098023;28;20032;-60
2023/08/22 11:05:11;;;;;;;10.15;8.77;;;36.70;40.80;;;;;;5097751;28;20028;-60
2023/08/22 11:07:42;;;;;;;10.23;8.90;;;36.70;40.80;;;;;;5097998;28;20034;-60
2023/08/22 11:10:14;;;;;;;12.63;9.90;;;36.90;40.50;;;;;;5096609;28;20043;-60
2023/08/22 11:12:41;;;;;;;11.10;9.70;;;36.90;40.20;;;;;;5097786;28;20099;-60
2023/08/22 11:15:07;;;;;;;12.70;10.00;;;36.90;40.00;;;;;;5097474;28;20040;-60
2023/08/22 11:17:39;;;;;;;10.70;9.05;;;36.90;39.80;;;;;;5097724;28;20070;-60
2023/08/22 11:20:09;;;;;;;11.13;9.43;;;36.80;39.90;;;;;;5096487;28;20032;-60
2023/08/22 11:22:36;;;;;;;10.38;8.95;;;36.70;40.10;;;;;;5096384;28;20322;-60
2023/08/22 11:25:02;;;;;;;10.07;9.07;;;36.80;40.40;;;;;;5097305;28;20055;-60
2023/08/22 11:27:28;;;;;;;9.98;8.70;;;36.90;40.50;;;;;;5097530;28;20028;-60
2023/08/22 11:29:54;;;;;;;12.13;9.68;;;36.90;40.40;;;;;;5097284;28;20346;-60
2023/08/22 11:32:28;;;;;;;12.02;9.25;;;37.00;40.10;;;;;;5097577;28;20043;-60
2023/08/22 11:34:59;;;;;;;11.15;9.10;;;37.00;39.10;;;;;;5097056;28;20016;-60
2023/08/22 11:37:26;;;;;;;10.23;8.60;;;36.90;39.00;;;;;;5097394;28;20104;-60
2023/08/22 11:39:53;;;;;;;11.48;9.90;;;36.90;39.70;;;;;;5097020;28;20445;-60
2023/08/22 11:42:24;;;;;;;14.82;10.15;;;37.00;39.90;;;;;;5096899;28;20499;-60
2023/08/22 11:45:21;;;;;;;11.43;9.10;;;37.00;39.60;;;;;;5097202;28;20039;-60
2023/08/22 11:47:50;;;;;;;10.77;9.40;;;36.90;39.80;;;;;;5096859;28;20031;-60
2023/08/22 11:50:23;;;;;;;11.73;10.00;;;37.00;40.10;;;;;;5096564;28;20044;-60
2023/08/22 11:52:52;;;;;;;;;;;37.10;40.00;;;;;;5097537;28;20103;-60
2023/08/22 11:55:40;;;;;;;11.10;10.00;;;37.00;39.30;;;;;;5096697;28;19920;-60
2023/08/22 11:58:11;;;;;;;13.40;10.30;;;36.90;40.20;;;;;;5096762;28;20455;-60
2023/08/22 12:00:39;;;;;;;11.07;9.63;;;36.90;40.20;;;;;;5096584;28;20020;-60
2023/08/22 12:03:09;;;;;;;11.60;10.07;;;36.90;40.30;;;;;;5095610;28;20020;-60
2023/08/22 12:05:40;;;;;;;12.02;9.82;;;36.90;40.50;;;;;;5096433;28;20028;-60
2023/08/22 12:08:06;;;;;;;12.43;9.93;;;36.90;40.60;;;;;;5096471;28;20027;-60
2023/08/22 12:10:44;;;;;;;11.13;10.02;;;37.00;41.00;;;;;;5095446;28;20476;-60
2023/08/22 12:13:12;;;;;;;13.60;11.40;;;37.10;41.50;;;;;;5096495;28;20028;-60
2023/08/22 12:15:39;;;;;;;12.52;10.75;;;37.20;41.60;;;;;;5096253;28;20028;-60
2023/08/22 12:18:05;;;;;;;11.73;9.90;;;37.20;41.70;;;;;;5096219;28;20021;-60
2023/08/22 12:20:38;;;;;;;12.05;10.57;;;37.20;41.90;;;;;;5096483;28;20016;-60
2023/08/22 12:23:06;;;;;;;13.23;11.32;;;37.20;41.70;;;;;;5096130;28;20020;-60
2023/08/22 12:25:42;;;;;;;13.43;11.32;;;37.20;41.80;;;;;;5096402;28;20024;-60
2023/08/22 12:28:09;;;;;;;13.15;11.40;;;37.10;41.90;;;;;;5096432;28;20081;-60
2023/08/22 12:30:37;;;;;;;12.38;10.85;;;36.90;42.10;;;;;;5096338;28;20091;-60
2023/08/22 12:33:04;;;;;;;12.70;11.15;;;36.90;42.20;;;;;;5095888;28;20051;-60
2023/08/22 12:35:38;;;;;;;14.18;11.18;;;36.90;42.40;;;;;;5095872;28;20093;-60